Terminal Aerodrome Forecast
Issued by NWS

Home | Current Version | Previous Version | Text Only | Print | Product List | Glossary On
Versions: 1 2 3 4 5 6 7 8 9 10 11 12 13
777
FTUS43 KABR 301723
TAFMBG
TAF
KMBG 301723Z 3018/3118 15013KT P6SM BKN012
     FM302100 09007KT P6SM OVC025
     FM310800 12006KT P6SM BKN130=

USA.gov is the U.S. government's official web portal to all federal, state and local government web resources and services.